sensor_id;sensor_type;location;lat;lon;timestamp;temperature;humidity
27200;DHT22;14714;48.106;11.546;2022-07-05T00:01:35;17.50;99.90
27200;DHT22;14714;48.106;11.546;2022-07-05T00:04:02;17.50;99.90
27200;DHT22;14714;48.106;11.546;2022-07-05T00:06:29;17.50;99.90
27200;DHT22;14714;48.106;11.546;2022-07-05T00:08:56;17.50;99.90
27200;DHT22;14714;48.106;11.546;2022-07-05T00:11:22;17.50;99.90
27200;DHT22;14714;48.106;11.546;2022-07-05T00:13:49;17.50;99.90
27200;DHT22;14714;48.106;11.546;2022-07-05T00:16:16;17.50;99.90
27200;DHT22;14714;48.106;11.546;2022-07-05T00:18:43;17.50;99.90
27200;DHT22;14714;48.106;11.546;2022-07-05T00:21:10;17.50;99.90
27200;DHT22;14714;48.106;11.546;2022-07-05T00:23:37;17.50;99.90
27200;DHT22;14714;48.106;11.546;2022-07-05T00:26:04;17.50;99.90
27200;DHT22;14714;48.106;11.546;2022-07-05T00:28:30;17.50;99.90
27200;DHT22;14714;48.106;11.546;2022-07-05T00:30:57;17.40;99.90
27200;DHT22;14714;48.106;11.546;2022-07-05T00:33:24;17.40;99.90
27200;DHT22;14714;48.106;11.546;2022-07-05T00:35:51;17.40;99.90
27200;DHT22;14714;48.106;11.546;2022-07-05T00:38:18;17.40;99.90
27200;DHT22;14714;48.106;11.546;2022-07-05T00:40:45;17.40;99.90
27200;DHT22;14714;48.106;11.546;2022-07-05T00:43:12;17.40;99.90
27200;DHT22;14714;48.106;11.546;2022-07-05T00:45:39;17.40;99.90
27200;DHT22;14714;48.106;11.546;2022-07-05T00:48:05;17.40;99.90
27200;DHT22;14714;48.106;11.546;2022-07-05T00:50:33;17.40;99.90
27200;DHT22;14714;48.106;11.546;2022-07-05T00:53:00;17.30;99.90
27200;DHT22;14714;48.106;11.546;2022-07-05T00:55:27;17.40;99.90
27200;DHT22;14714;48.106;11.546;2022-07-05T00:57:54;17.30;99.90
27200;DHT22;14714;48.106;11.546;2022-07-05T01:00:21;17.30;99.90
27200;DHT22;14714;48.106;11.546;2022-07-05T01:02:48;17.30;99.90
27200;DHT22;14714;48.106;11.546;2022-07-05T01:05:15;17.30;99.90
27200;DHT22;14714;48.106;11.546;2022-07-05T01:07:42;17.30;99.90
27200;DHT22;14714;48.106;11.546;2022-07-05T01:10:10;17.20;99.90
27200;DHT22;14714;48.106;11.546;2022-07-05T01:12:40;17.20;99.90
27200;DHT22;14714;48.106;11.546;2022-07-05T01:15:07;17.20;99.90
27200;DHT22;14714;48.106;11.546;2022-07-05T01:17:35;17.20;99.90
27200;DHT22;14714;48.106;11.546;2022-07-05T01:20:05;17.20;99.90
27200;DHT22;14714;48.106;11.546;2022-07-05T01:22:49;17.20;99.90
27200;DHT22;14714;48.106;11.546;2022-07-05T01:25:19;17.20;99.90
27200;DHT22;14714;48.106;11.546;2022-07-05T01:27:46;17.10;99.90
27200;DHT22;14714;48.106;11.546;2022-07-05T01:30:14;17.20;99.90
27200;DHT22;14714;48.106;11.546;2022-07-05T01:32:41;17.10;99.90
27200;DHT22;14714;48.106;11.546;2022-07-05T01:35:09;17.10;99.90
27200;DHT22;14714;48.106;11.546;2022-07-05T01:37:37;17.10;99.90
27200;DHT22;14714;48.106;11.546;2022-07-05T01:40:05;17.10;99.90
27200;DHT22;14714;48.106;11.546;2022-07-05T01:42:33;17.10;99.90
27200;DHT22;14714;48.106;11.546;2022-07-05T01:45:00;17.10;99.90
27200;DHT22;14714;48.106;11.546;2022-07-05T01:47:27;17.10;99.90
27200;DHT22;14714;48.106;11.546;2022-07-05T01:49:57;17.10;99.90
27200;DHT22;14714;48.106;11.546;2022-07-05T01:52:27;17.10;99.90
27200;DHT22;14714;48.106;11.546;2022-07-05T01:54:56;17.10;99.90
27200;DHT22;14714;48.106;11.546;2022-07-05T01:57:22;17.10;99.90
27200;DHT22;14714;48.106;11.546;2022-07-05T01:59:49;17.10;99.90
27200;DHT22;14714;48.106;11.546;2022-07-05T02:02:16;17.10;99.90
27200;DHT22;14714;48.106;11.546;2022-07-05T02:04:46;17.00;99.90
27200;DHT22;14714;48.106;11.546;2022-07-05T02:07:14;17.00;99.90
27200;DHT22;14714;48.106;11.546;2022-07-05T02:09:41;17.00;99.90
27200;DHT22;14714;48.106;11.546;2022-07-05T02:12:08;17.00;99.90
27200;DHT22;14714;48.106;11.546;2022-07-05T02:14:35;17.00;99.90
27200;DHT22;14714;48.106;11.546;2022-07-05T02:17:02;17.00;99.90
27200;DHT22;14714;48.106;11.546;2022-07-05T02:19:29;17.00;99.90
27200;DHT22;14714;48.106;11.546;2022-07-05T02:21:56;17.00;99.90
27200;DHT22;14714;48.106;11.546;2022-07-05T02:24:23;17.00;99.90
27200;DHT22;14714;48.106;11.546;2022-07-05T02:26:50;17.00;99.90
27200;DHT22;14714;48.106;11.546;2022-07-05T02:29:17;17.00;99.90
27200;DHT22;14714;48.106;11.546;2022-07-05T02:31:44;17.00;99.90
27200;DHT22;14714;48.106;11.546;2022-07-05T02:34:11;16.90;99.90
27200;DHT22;14714;48.106;11.546;2022-07-05T02:36:38;16.90;99.90
27200;DHT22;14714;48.106;11.546;2022-07-05T02:39:05;16.90;99.90
27200;DHT22;14714;48.106;11.546;2022-07-05T02:41:31;16.90;99.90
27200;DHT22;14714;48.106;11.546;2022-07-05T02:43:58;16.90;99.90
27200;DHT22;14714;48.106;11.546;2022-07-05T02:46:25;16.90;99.90
27200;DHT22;14714;48.106;11.546;2022-07-05T02:48:52;16.90;99.90
27200;DHT22;14714;48.106;11.546;2022-07-05T02:51:24;16.90;99.90
27200;DHT22;14714;48.106;11.546;2022-07-05T02:53:51;16.90;99.90
27200;DHT22;14714;48.106;11.546;2022-07-05T02:56:18;16.80;99.90
27200;DHT22;14714;48.106;11.546;2022-07-05T02:58:45;16.80;99.90
27200;DHT22;14714;48.106;11.546;2022-07-05T03:01:12;16.80;99.90
27200;DHT22;14714;48.106;11.546;2022-07-05T03:03:39;16.70;99.90
27200;DHT22;14714;48.106;11.546;2022-07-05T03:06:06;16.80;99.90
27200;DHT22;14714;48.106;11.546;2022-07-05T03:08:33;16.70;99.90
27200;DHT22;14714;48.106;11.546;2022-07-05T03:10:59;16.70;99.90
27200;DHT22;14714;48.106;11.546;2022-07-05T03:13:26;16.70;99.90
27200;DHT22;14714;48.106;11.546;2022-07-05T03:15:53;16.70;99.90
27200;DHT22;14714;48.106;11.546;2022-07-05T03:18:20;16.70;99.90
27200;DHT22;14714;48.106;11.546;2022-07-05T03:20:48;16.70;99.90
27200;DHT22;14714;48.106;11.546;2022-07-05T03:23:14;16.70;99.90
27200;DHT22;14714;48.106;11.546;2022-07-05T03:25:41;16.70;99.90
27200;DHT22;14714;48.106;11.546;2022-07-05T03:28:08;16.70;99.90
27200;DHT22;14714;48.106;11.546;2022-07-05T03:30:35;16.70;99.90
27200;DHT22;14714;48.106;11.546;2022-07-05T03:33:02;16.70;99.90
27200;DHT22;14714;48.106;11.546;2022-07-05T03:35:29;16.70;99.90
27200;DHT22;14714;48.106;11.546;2022-07-05T03:37:55;16.70;99.90
27200;DHT22;14714;48.106;11.546;2022-07-05T03:40:22;16.70;99.90
27200;DHT22;14714;48.106;11.546;2022-07-05T03:42:50;16.70;99.90
27200;DHT22;14714;48.106;11.546;2022-07-05T03:45:16;16.60;99.90
27200;DHT22;14714;48.106;11.546;2022-07-05T03:47:43;16.60;99.90
27200;DHT22;14714;48.106;11.546;2022-07-05T03:50:10;16.60;99.90
27200;DHT22;14714;48.106;11.546;2022-07-05T03:52:37;16.60;99.90
27200;DHT22;14714;48.106;11.546;2022-07-05T03:55:04;16.50;99.90
27200;DHT22;14714;48.106;11.546;2022-07-05T03:57:31;16.50;99.90
27200;DHT22;14714;48.106;11.546;2022-07-05T03:59:58;16.50;99.90
27200;DHT22;14714;48.106;11.546;2022-07-05T04:02:25;16.50;99.90
27200;DHT22;14714;48.106;11.546;2022-07-05T04:04:51;16.50;99.90
27200;DHT22;14714;48.106;11.546;2022-07-05T04:07:18;16.50;99.90
27200;DHT22;14714;48.106;11.546;2022-07-05T04:09:45;16.50;99.90
27200;DHT22;14714;48.106;11.546;2022-07-05T04:12:13;16.50;99.90
27200;DHT22;14714;48.106;11.546;2022-07-05T04:14:39;16.50;99.90
27200;DHT22;14714;48.106;11.546;2022-07-05T04:17:06;16.60;99.90
27200;DHT22;14714;48.106;11.546;2022-07-05T04:19:33;16.60;99.90
27200;DHT22;14714;48.106;11.546;2022-07-05T04:22:00;16.60;99.90
27200;DHT22;14714;48.106;11.546;2022-07-05T04:24:27;16.70;99.90
27200;DHT22;14714;48.106;11.546;2022-07-05T04:26:53;16.70;99.90
27200;DHT22;14714;48.106;11.546;2022-07-05T04:29:20;16.80;99.90
27200;DHT22;14714;48.106;11.546;2022-07-05T04:31:47;16.90;99.90
27200;DHT22;14714;48.106;11.546;2022-07-05T04:34:14;16.90;99.90
27200;DHT22;14714;48.106;11.546;2022-07-05T04:36:41;17.00;99.90
27200;DHT22;14714;48.106;11.546;2022-07-05T04:39:08;17.10;99.90
27200;DHT22;14714;48.106;11.546;2022-07-05T04:41:35;17.20;99.90
27200;DHT22;14714;48.106;11.546;2022-07-05T04:44:02;17.40;99.90
27200;DHT22;14714;48.106;11.546;2022-07-05T04:46:28;17.50;99.90
27200;DHT22;14714;48.106;11.546;2022-07-05T04:48:55;17.60;99.90
27200;DHT22;14714;48.106;11.546;2022-07-05T04:51:23;17.60;99.90
27200;DHT22;14714;48.106;11.546;2022-07-05T04:53:50;17.60;99.90
27200;DHT22;14714;48.106;11.546;2022-07-05T04:56:17;17.70;99.90
27200;DHT22;14714;48.106;11.546;2022-07-05T04:58:44;17.70;99.90
27200;DHT22;14714;48.106;11.546;2022-07-05T05:01:10;17.70;99.90
27200;DHT22;14714;48.106;11.546;2022-07-05T05:03:37;17.70;99.90
27200;DHT22;14714;48.106;11.546;2022-07-05T05:06:04;17.80;99.90
27200;DHT22;14714;48.106;11.546;2022-07-05T05:08:31;17.80;99.90
27200;DHT22;14714;48.106;11.546;2022-07-05T05:10:58;17.90;99.90
27200;DHT22;14714;48.106;11.546;2022-07-05T05:13:25;18.00;99.90
27200;DHT22;14714;48.106;11.546;2022-07-05T05:15:51;18.30;99.90
27200;DHT22;14714;48.106;11.546;2022-07-05T05:18:18;18.70;99.90
27200;DHT22;14714;48.106;11.546;2022-07-05T05:20:47;19.00;99.90
27200;DHT22;14714;48.106;11.546;2022-07-05T05:23:14;20.10;99.90
27200;DHT22;14714;48.106;11.546;2022-07-05T05:25:41;21.50;99.90
27200;DHT22;14714;48.106;11.546;2022-07-05T05:28:08;23.20;99.90
27200;DHT22;14714;48.106;11.546;2022-07-05T05:30:34;24.90;99.90
27200;DHT22;14714;48.106;11.546;2022-07-05T05:33:01;26.50;99.90
27200;DHT22;14714;48.106;11.546;2022-07-05T05:35:28;27.90;99.90
27200;DHT22;14714;48.106;11.546;2022-07-05T05:37:55;28.80;99.70
27200;DHT22;14714;48.106;11.546;2022-07-05T05:40:24;29.90;94.00
27200;DHT22;14714;48.106;11.546;2022-07-05T05:42:52;30.90;89.90
27200;DHT22;14714;48.106;11.546;2022-07-05T05:45:20;31.90;81.70
27200;DHT22;14714;48.106;11.546;2022-07-05T05:47:48;33.00;73.30
27200;DHT22;14714;48.106;11.546;2022-07-05T05:52:46;34.70;61.10
27200;DHT22;14714;48.106;11.546;2022-07-05T05:55:13;35.30;57.80
27200;DHT22;14714;48.106;11.546;2022-07-05T05:57:40;36.00;55.90
27200;DHT22;14714;48.106;11.546;2022-07-05T06:00:08;36.50;54.40
27200;DHT22;14714;48.106;11.546;2022-07-05T06:02:35;37.00;51.50
27200;DHT22;14714;48.106;11.546;2022-07-05T06:05:02;37.30;49.70
27200;DHT22;14714;48.106;11.546;2022-07-05T06:07:29;37.60;48.50
27200;DHT22;14714;48.106;11.546;2022-07-05T06:09:56;37.80;48.00
27200;DHT22;14714;48.106;11.546;2022-07-05T06:12:23;38.00;46.30
27200;DHT22;14714;48.106;11.546;2022-07-05T06:14:50;38.20;46.10
27200;DHT22;14714;48.106;11.546;2022-07-05T06:17:16;38.40;44.80
27200;DHT22;14714;48.106;11.546;2022-07-05T06:19:43;38.70;44.30
27200;DHT22;14714;48.106;11.546;2022-07-05T06:22:10;39.00;44.20
27200;DHT22;14714;48.106;11.546;2022-07-05T06:24:37;39.40;43.00
27200;DHT22;14714;48.106;11.546;2022-07-05T06:27:04;39.60;42.70
27200;DHT22;14714;48.106;11.546;2022-07-05T06:29:31;39.80;41.20
27200;DHT22;14714;48.106;11.546;2022-07-05T06:31:58;40.10;40.70
27200;DHT22;14714;48.106;11.546;2022-07-05T06:34:26;40.30;40.00
27200;DHT22;14714;48.106;11.546;2022-07-05T06:36:53;40.50;39.80
27200;DHT22;14714;48.106;11.546;2022-07-05T06:39:20;40.50;40.50
27200;DHT22;14714;48.106;11.546;2022-07-05T06:41:47;40.60;39.40
27200;DHT22;14714;48.106;11.546;2022-07-05T06:44:13;40.60;39.50
27200;DHT22;14714;48.106;11.546;2022-07-05T06:47:00;40.70;39.20
27200;DHT22;14714;48.106;11.546;2022-07-05T06:49:27;41.00;39.00
27200;DHT22;14714;48.106;11.546;2022-07-05T06:51:54;41.30;37.70
27200;DHT22;14714;48.106;11.546;2022-07-05T06:54:21;40.80;38.30
27200;DHT22;14714;48.106;11.546;2022-07-05T06:57:07;39.90;39.30
27200;DHT22;14714;48.106;11.546;2022-07-05T06:59:54;39.80;39.30
27200;DHT22;14714;48.106;11.546;2022-07-05T07:02:22;40.30;39.80
27200;DHT22;14714;48.106;11.546;2022-07-05T07:04:50;40.80;39.00
27200;DHT22;14714;48.106;11.546;2022-07-05T07:07:37;40.80;38.70
27200;DHT22;14714;48.106;11.546;2022-07-05T07:10:22;41.00;37.40
27200;DHT22;14714;48.106;11.546;2022-07-05T07:12:55;40.90;39.30
27200;DHT22;14714;48.106;11.546;2022-07-05T07:15:22;41.10;39.40
27200;DHT22;14714;48.106;11.546;2022-07-05T07:17:48;41.40;36.90
27200;DHT22;14714;48.106;11.546;2022-07-05T07:20:15;41.50;37.10
27200;DHT22;14714;48.106;11.546;2022-07-05T07:22:42;41.80;36.90
27200;DHT22;14714;48.106;11.546;2022-07-05T07:25:09;42.40;36.40
27200;DHT22;14714;48.106;11.546;2022-07-05T07:27:47;43.10;34.80
27200;DHT22;14714;48.106;11.546;2022-07-05T07:30:15;43.80;33.80
27200;DHT22;14714;48.106;11.546;2022-07-05T07:32:42;44.00;34.00
27200;DHT22;14714;48.106;11.546;2022-07-05T07:35:09;43.80;34.80
27200;DHT22;14714;48.106;11.546;2022-07-05T07:37:36;44.10;34.40
27200;DHT22;14714;48.106;11.546;2022-07-05T07:40:04;43.70;32.40
27200;DHT22;14714;48.106;11.546;2022-07-05T07:42:32;41.90;35.00
27200;DHT22;14714;48.106;11.546;2022-07-05T07:44:59;39.60;37.70
27200;DHT22;14714;48.106;11.546;2022-07-05T07:47:33;37.20;41.00
27200;DHT22;14714;48.106;11.546;2022-07-05T07:50:02;35.50;46.30
27200;DHT22;14714;48.106;11.546;2022-07-05T07:52:30;34.60;47.60
27200;DHT22;14714;48.106;11.546;2022-07-05T07:54:57;33.60;50.20
27200;DHT22;14714;48.106;11.546;2022-07-05T07:57:24;33.30;51.40
27200;DHT22;14714;48.106;11.546;2022-07-05T07:59:51;34.20;49.60
27200;DHT22;14714;48.106;11.546;2022-07-05T08:02:18;35.20;47.80
27200;DHT22;14714;48.106;11.546;2022-07-05T08:04:48;35.60;47.00
27200;DHT22;14714;48.106;11.546;2022-07-05T08:07:16;35.30;47.70
27200;DHT22;14714;48.106;11.546;2022-07-05T08:09:44;34.70;48.90
27200;DHT22;14714;48.106;11.546;2022-07-05T08:12:12;34.20;48.90
27200;DHT22;14714;48.106;11.546;2022-07-05T08:14:39;33.60;49.10
27200;DHT22;14714;48.106;11.546;2022-07-05T08:17:06;33.00;51.70
27200;DHT22;14714;48.106;11.546;2022-07-05T08:19:36;32.70;53.70
27200;DHT22;14714;48.106;11.546;2022-07-05T08:22:21;32.80;51.10
27200;DHT22;14714;48.106;11.546;2022-07-05T08:24:49;32.90;50.40
27200;DHT22;14714;48.106;11.546;2022-07-05T08:27:16;32.80;50.00
27200;DHT22;14714;48.106;11.546;2022-07-05T08:29:44;32.80;48.20
27200;DHT22;14714;48.106;11.546;2022-07-05T08:32:11;32.80;42.50
27200;DHT22;14714;48.106;11.546;2022-07-05T08:34:38;32.70;43.40
27200;DHT22;14714;48.106;11.546;2022-07-05T08:37:05;33.20;44.90
27200;DHT22;14714;48.106;11.546;2022-07-05T08:39:40;34.40;42.50
27200;DHT22;14714;48.106;11.546;2022-07-05T08:42:11;35.70;39.20
27200;DHT22;14714;48.106;11.546;2022-07-05T08:44:39;36.60;37.70
27200;DHT22;14714;48.106;11.546;2022-07-05T08:47:09;37.50;35.60
27200;DHT22;14714;48.106;11.546;2022-07-05T08:49:40;37.80;35.50
27200;DHT22;14714;48.106;11.546;2022-07-05T08:52:10;38.50;34.60
27200;DHT22;14714;48.106;11.546;2022-07-05T08:54:38;38.90;34.00
27200;DHT22;14714;48.106;11.546;2022-07-05T08:57:05;39.20;33.50
27200;DHT22;14714;48.106;11.546;2022-07-05T08:59:39;39.60;33.60
27200;DHT22;14714;48.106;11.546;2022-07-05T09:02:10;40.20;31.50
27200;DHT22;14714;48.106;11.546;2022-07-05T09:04:42;40.50;31.80
27200;DHT22;14714;48.106;11.546;2022-07-05T09:07:10;40.70;29.90
27200;DHT22;14714;48.106;11.546;2022-07-05T09:09:39;40.50;27.70
27200;DHT22;14714;48.106;11.546;2022-07-05T09:12:12;40.20;29.10
27200;DHT22;14714;48.106;11.546;2022-07-05T09:14:52;39.50;28.80
27200;DHT22;14714;48.106;11.546;2022-07-05T09:17:19;39.30;30.20
27200;DHT22;14714;48.106;11.546;2022-07-05T09:20:08;39.10;30.30
27200;DHT22;14714;48.106;11.546;2022-07-05T09:22:51;38.50;30.40
27200;DHT22;14714;48.106;11.546;2022-07-05T09:25:26;38.70;32.60
27200;DHT22;14714;48.106;11.546;2022-07-05T09:28:00;39.10;30.70
27200;DHT22;14714;48.106;11.546;2022-07-05T09:33:14;37.80;30.00
27200;DHT22;14714;48.106;11.546;2022-07-05T09:35:43;37.10;32.10
27200;DHT22;14714;48.106;11.546;2022-07-05T09:38:20;37.00;31.90
27200;DHT22;14714;48.106;11.546;2022-07-05T09:40:49;36.70;31.90
27200;DHT22;14714;48.106;11.546;2022-07-05T09:43:27;36.40;33.30
27200;DHT22;14714;48.106;11.546;2022-07-05T09:45:58;36.10;33.60
27200;DHT22;14714;48.106;11.546;2022-07-05T09:48:30;35.90;33.00
27200;DHT22;14714;48.106;11.546;2022-07-05T09:51:09;35.30;35.50
27200;DHT22;14714;48.106;11.546;2022-07-05T09:53:58;34.90;36.60
27200;DHT22;14714;48.106;11.546;2022-07-05T09:56:28;34.80;35.30
27200;DHT22;14714;48.106;11.546;2022-07-05T09:59:18;34.80;36.20
27200;DHT22;14714;48.106;11.546;2022-07-05T10:01:47;34.70;36.40
27200;DHT22;14714;48.106;11.546;2022-07-05T10:04:14;34.40;35.80
27200;DHT22;14714;48.106;11.546;2022-07-05T10:06:41;34.20;36.90
27200;DHT22;14714;48.106;11.546;2022-07-05T10:09:10;34.30;37.60
27200;DHT22;14714;48.106;11.546;2022-07-05T10:11:42;34.80;37.00
27200;DHT22;14714;48.106;11.546;2022-07-05T10:14:15;35.20;37.10
27200;DHT22;14714;48.106;11.546;2022-07-05T10:16:46;35.80;36.90
27200;DHT22;14714;48.106;11.546;2022-07-05T10:19:17;36.00;34.40
27200;DHT22;14714;48.106;11.546;2022-07-05T10:21:45;35.70;32.40
27200;DHT22;14714;48.106;11.546;2022-07-05T10:24:35;34.70;33.50
27200;DHT22;14714;48.106;11.546;2022-07-05T10:27:06;33.40;36.90
27200;DHT22;14714;48.106;11.546;2022-07-05T10:29:34;32.60;39.00
27200;DHT22;14714;48.106;11.546;2022-07-05T10:32:01;31.80;39.60
27200;DHT22;14714;48.106;11.546;2022-07-05T10:34:32;31.50;41.70
27200;DHT22;14714;48.106;11.546;2022-07-05T10:37:19;31.70;40.90
27200;DHT22;14714;48.106;11.546;2022-07-05T10:39:46;31.60;41.30
27200;DHT22;14714;48.106;11.546;2022-07-05T10:42:14;31.60;40.20
27200;DHT22;14714;48.106;11.546;2022-07-05T10:44:41;31.40;41.50
27200;DHT22;14714;48.106;11.546;2022-07-05T10:47:09;31.20;38.40
27200;DHT22;14714;48.106;11.546;2022-07-05T10:49:39;30.80;41.50
27200;DHT22;14714;48.106;11.546;2022-07-05T10:52:23;30.90;41.60
27200;DHT22;14714;48.106;11.546;2022-07-05T10:55:20;31.30;42.60
27200;DHT22;14714;48.106;11.546;2022-07-05T10:58:18;31.90;41.50
27200;DHT22;14714;48.106;11.546;2022-07-05T11:12:24;29.00;42.50
27200;DHT22;14714;48.106;11.546;2022-07-05T11:14:52;28.90;44.90
27200;DHT22;14714;48.106;11.546;2022-07-05T11:17:20;29.20;42.90
27200;DHT22;14714;48.106;11.546;2022-07-05T11:20:16;29.50;41.90
27200;DHT22;14714;48.106;11.546;2022-07-05T11:23:04;29.90;41.30
27200;DHT22;14714;48.106;11.546;2022-07-05T11:25:33;29.60;38.70
27200;DHT22;14714;48.106;11.546;2022-07-05T11:28:15;29.00;42.70
27200;DHT22;14714;48.106;11.546;2022-07-05T11:30:52;28.80;43.20
27200;DHT22;14714;48.106;11.546;2022-07-05T11:33:33;29.00;43.70
27200;DHT22;14714;48.106;11.546;2022-07-05T11:36:01;29.20;42.10
27200;DHT22;14714;48.106;11.546;2022-07-05T11:38:28;29.20;41.20
27200;DHT22;14714;48.106;11.546;2022-07-05T11:41:16;29.00;41.00
27200;DHT22;14714;48.106;11.546;2022-07-05T11:43:43;28.50;40.90
27200;DHT22;14714;48.106;11.546;2022-07-05T11:46:22;28.30;43.70
27200;DHT22;14714;48.106;11.546;2022-07-05T11:49:09;28.30;45.60
27200;DHT22;14714;48.106;11.546;2022-07-05T11:51:36;28.50;43.80
27200;DHT22;14714;48.106;11.546;2022-07-05T11:54:03;28.50;42.80
27200;DHT22;14714;48.106;11.546;2022-07-05T11:56:39;28.50;44.10
27200;DHT22;14714;48.106;11.546;2022-07-05T11:59:19;28.60;43.60
27200;DHT22;14714;48.106;11.546;2022-07-05T12:01:47;28.70;43.80
27200;DHT22;14714;48.106;11.546;2022-07-05T12:04:26;28.70;43.50
27200;DHT22;14714;48.106;11.546;2022-07-05T12:06:53;28.60;43.70
27200;DHT22;14714;48.106;11.546;2022-07-05T12:09:25;28.50;41.70
27200;DHT22;14714;48.106;11.546;2022-07-05T12:11:54;28.10;42.90
27200;DHT22;14714;48.106;11.546;2022-07-05T12:14:52;27.90;42.90
27200;DHT22;14714;48.106;11.546;2022-07-05T12:17:19;27.50;43.20
27200;DHT22;14714;48.106;11.546;2022-07-05T12:19:53;27.40;43.40
27200;DHT22;14714;48.106;11.546;2022-07-05T12:22:35;27.20;44.40
27200;DHT22;14714;48.106;11.546;2022-07-05T12:25:04;27.00;45.40
27200;DHT22;14714;48.106;11.546;2022-07-05T12:27:36;26.90;47.60
27200;DHT22;14714;48.106;11.546;2022-07-05T12:30:04;26.70;45.80
27200;DHT22;14714;48.106;11.546;2022-07-05T12:32:32;26.60;44.60
27200;DHT22;14714;48.106;11.546;2022-07-05T12:34:59;26.60;45.40
27200;DHT22;14714;48.106;11.546;2022-07-05T12:37:32;26.80;47.40
27200;DHT22;14714;48.106;11.546;2022-07-05T12:40:08;27.00;45.90
27200;DHT22;14714;48.106;11.546;2022-07-05T12:42:37;27.20;46.30
27200;DHT22;14714;48.106;11.546;2022-07-05T12:45:15;27.30;47.10
27200;DHT22;14714;48.106;11.546;2022-07-05T12:50:16;27.50;44.80
27200;DHT22;14714;48.106;11.546;2022-07-05T12:53:03;27.60;45.60
27200;DHT22;14714;48.106;11.546;2022-07-05T12:56:09;27.60;46.70
27200;DHT22;14714;48.106;11.546;2022-07-05T12:59:01;27.60;48.20
27200;DHT22;14714;48.106;11.546;2022-07-05T13:01:42;27.30;46.60
27200;DHT22;14714;48.106;11.546;2022-07-05T13:04:18;27.20;48.50
27200;DHT22;14714;48.106;11.546;2022-07-05T13:06:49;27.10;48.00
27200;DHT22;14714;48.106;11.546;2022-07-05T13:16:47;26.90;46.10
27200;DHT22;14714;48.106;11.546;2022-07-05T13:19:14;27.00;47.10
27200;DHT22;14714;48.106;11.546;2022-07-05T13:21:41;27.20;47.70
27200;DHT22;14714;48.106;11.546;2022-07-05T13:24:08;27.50;45.90
27200;DHT22;14714;48.106;11.546;2022-07-05T13:26:34;27.50;45.70
27200;DHT22;14714;48.106;11.546;2022-07-05T13:29:01;27.70;46.50
27200;DHT22;14714;48.106;11.546;2022-07-05T13:31:28;27.70;46.00
27200;DHT22;14714;48.106;11.546;2022-07-05T13:33:58;27.70;44.80
27200;DHT22;14714;48.106;11.546;2022-07-05T13:36:26;27.50;44.50
27200;DHT22;14714;48.106;11.546;2022-07-05T13:38:53;27.10;47.50
27200;DHT22;14714;48.106;11.546;2022-07-05T13:41:20;26.80;48.60
27200;DHT22;14714;48.106;11.546;2022-07-05T13:43:47;26.70;48.90
27200;DHT22;14714;48.106;11.546;2022-07-05T13:46:14;26.60;50.10
27200;DHT22;14714;48.106;11.546;2022-07-05T13:48:41;26.60;49.90
27200;DHT22;14714;48.106;11.546;2022-07-05T13:51:08;26.60;49.60
27200;DHT22;14714;48.106;11.546;2022-07-05T13:53:34;26.50;49.30
27200;DHT22;14714;48.106;11.546;2022-07-05T13:56:06;26.40;49.20
27200;DHT22;14714;48.106;11.546;2022-07-05T13:58:33;26.40;47.00
27200;DHT22;14714;48.106;11.546;2022-07-05T14:01:01;26.40;51.10
27200;DHT22;14714;48.106;11.546;2022-07-05T14:03:30;26.60;48.00
27200;DHT22;14714;48.106;11.546;2022-07-05T14:05:57;26.60;49.20
27200;DHT22;14714;48.106;11.546;2022-07-05T14:08:24;26.50;44.80
27200;DHT22;14714;48.106;11.546;2022-07-05T14:10:54;26.40;46.80
27200;DHT22;14714;48.106;11.546;2022-07-05T14:13:21;26.20;47.00
27200;DHT22;14714;48.106;11.546;2022-07-05T14:15:48;26.10;47.60
27200;DHT22;14714;48.106;11.546;2022-07-05T14:18:18;26.00;48.20
27200;DHT22;14714;48.106;11.546;2022-07-05T14:20:45;26.00;46.90
27200;DHT22;14714;48.106;11.546;2022-07-05T14:23:13;26.00;46.70
27200;DHT22;14714;48.106;11.546;2022-07-05T14:25:42;26.00;50.00
27200;DHT22;14714;48.106;11.546;2022-07-05T14:28:09;26.00;52.20
27200;DHT22;14714;48.106;11.546;2022-07-05T14:30:37;26.00;50.80
27200;DHT22;14714;48.106;11.546;2022-07-05T14:33:05;25.90;49.50
27200;DHT22;14714;48.106;11.546;2022-07-05T14:35:32;25.80;46.90
27200;DHT22;14714;48.106;11.546;2022-07-05T14:37:59;25.80;49.00
27200;DHT22;14714;48.106;11.546;2022-07-05T14:40:27;25.80;49.50
27200;DHT22;14714;48.106;11.546;2022-07-05T14:42:58;25.90;48.30
27200;DHT22;14714;48.106;11.546;2022-07-05T14:45:25;26.00;47.50
27200;DHT22;14714;48.106;11.546;2022-07-05T14:47:54;26.20;47.90
27200;DHT22;14714;48.106;11.546;2022-07-05T14:50:22;26.30;47.00
27200;DHT22;14714;48.106;11.546;2022-07-05T14:52:49;26.50;47.00
27200;DHT22;14714;48.106;11.546;2022-07-05T14:55:17;26.60;45.80
27200;DHT22;14714;48.106;11.546;2022-07-05T14:57:44;26.70;44.30
27200;DHT22;14714;48.106;11.546;2022-07-05T15:00:13;26.70;44.70
27200;DHT22;14714;48.106;11.546;2022-07-05T15:02:40;26.70;45.20
27200;DHT22;14714;48.106;11.546;2022-07-05T15:05:07;26.60;45.30
27200;DHT22;14714;48.106;11.546;2022-07-05T15:07:36;26.50;45.70
27200;DHT22;14714;48.106;11.546;2022-07-05T15:10:03;26.50;47.00
27200;DHT22;14714;48.106;11.546;2022-07-05T15:12:30;26.50;46.60
27200;DHT22;14714;48.106;11.546;2022-07-05T15:14:57;26.50;48.50
27200;DHT22;14714;48.106;11.546;2022-07-05T15:17:25;26.50;50.10
27200;DHT22;14714;48.106;11.546;2022-07-05T15:19:52;26.40;50.00
27200;DHT22;14714;48.106;11.546;2022-07-05T15:22:19;26.30;50.40
27200;DHT22;14714;48.106;11.546;2022-07-05T15:24:47;26.20;52.40
27200;DHT22;14714;48.106;11.546;2022-07-05T15:27:14;26.10;52.20
27200;DHT22;14714;48.106;11.546;2022-07-05T15:29:46;26.10;51.80
27200;DHT22;14714;48.106;11.546;2022-07-05T15:32:13;26.00;52.10
27200;DHT22;14714;48.106;11.546;2022-07-05T15:34:39;25.90;56.40
27200;DHT22;14714;48.106;11.546;2022-07-05T15:37:06;25.80;54.90
27200;DHT22;14714;48.106;11.546;2022-07-05T15:39:33;25.70;50.40
27200;DHT22;14714;48.106;11.546;2022-07-05T15:42:01;25.80;48.70
27200;DHT22;14714;48.106;11.546;2022-07-05T15:44:28;25.70;47.70
27200;DHT22;14714;48.106;11.546;2022-07-05T15:46:55;25.70;46.20
27200;DHT22;14714;48.106;11.546;2022-07-05T15:49:36;25.70;49.20
27200;DHT22;14714;48.106;11.546;2022-07-05T15:52:03;25.60;47.20
27200;DHT22;14714;48.106;11.546;2022-07-05T15:54:30;25.50;47.90
27200;DHT22;14714;48.106;11.546;2022-07-05T15:56:57;25.50;50.70